Terminal Aerodrome Forecast
Issued by NWS Hastings, NE

Current Version | Previous Version | Text Only | Print | Product List | Glossary On
Versions: 1 2 3 4 5 6 7 8 9 10 11 12 13
000
FTUS43 KGID 282320
TAFGRI
TAF
KGRI 282320Z 2900/2924 29011KT P6SM FEW080 SCT090
     FM290200 26006KT P6SM VCSH FEW070 SCT090
     FM290800 30006KT P6SM FEW035 SCT200
     FM291400 33009KT P6SM FEW250
     FM291700 33015G24KT P6SM SCT070=

USA.gov is the U.S. government's official web portal to all federal, state and local government web resources and services.